sensor_id;sensor_type;location;lat;lon;timestamp;P1;durP1;ratioP1;P2;durP2;ratioP2
10471;SDS011;5283;48.876;8.962;2023-11-21T00:01:05;1.77;;;0.87;;
10471;SDS011;5283;48.876;8.962;2023-11-21T00:03:35;1.23;;;0.80;;
10471;SDS011;5283;48.876;8.962;2023-11-21T00:06:02;3.23;;;1.07;;
10471;SDS011;5283;48.876;8.962;2023-11-21T00:08:29;1.53;;;0.87;;
10471;SDS011;5283;48.876;8.962;2023-11-21T00:10:56;1.93;;;0.90;;
10471;SDS011;5283;48.876;8.962;2023-11-21T00:13:23;2.80;;;1.00;;
10471;SDS011;5283;48.876;8.962;2023-11-21T00:15:49;1.00;;;0.70;;
10471;SDS011;5283;48.876;8.962;2023-11-21T00:18:16;0.87;;;0.70;;
10471;SDS011;5283;48.876;8.962;2023-11-21T00:20:43;6.73;;;5.23;;
10471;SDS011;5283;48.876;8.962;2023-11-21T00:23:10;10.33;;;9.23;;
10471;SDS011;5283;48.876;8.962;2023-11-21T00:25:36;5.00;;;3.83;;
10471;SDS011;5283;48.876;8.962;2023-11-21T00:28:03;4.03;;;1.90;;
10471;SDS011;5283;48.876;8.962;2023-11-21T00:30:30;1.57;;;1.13;;
10471;SDS011;5283;48.876;8.962;2023-11-21T00:32:57;1.87;;;1.37;;
10471;SDS011;5283;48.876;8.962;2023-11-21T00:35:24;1.37;;;1.20;;
10471;SDS011;5283;48.876;8.962;2023-11-21T00:37:51;2.40;;;1.07;;
10471;SDS011;5283;48.876;8.962;2023-11-21T00:40:18;4.07;;;1.43;;
10471;SDS011;5283;48.876;8.962;2023-11-21T00:42:48;7.73;;;1.87;;
10471;SDS011;5283;48.876;8.962;2023-11-21T00:45:15;2.07;;;1.50;;
10471;SDS011;5283;48.876;8.962;2023-11-21T00:47:42;2.60;;;1.57;;
10471;SDS011;5283;48.876;8.962;2023-11-21T00:50:09;5.60;;;1.47;;
10471;SDS011;5283;48.876;8.962;2023-11-21T00:52:35;2.80;;;1.33;;
10471;SDS011;5283;48.876;8.962;2023-11-21T00:55:03;2.93;;;1.40;;
10471;SDS011;5283;48.876;8.962;2023-11-21T00:57:30;5.33;;;1.20;;
10471;SDS011;5283;48.876;8.962;2023-11-21T00:59:57;2.90;;;1.47;;
10471;SDS011;5283;48.876;8.962;2023-11-21T01:02:24;5.23;;;1.73;;
10471;SDS011;5283;48.876;8.962;2023-11-21T01:04:51;3.97;;;1.40;;
10471;SDS011;5283;48.876;8.962;2023-11-21T01:07:18;2.90;;;1.50;;
10471;SDS011;5283;48.876;8.962;2023-11-21T01:09:46;3.27;;;1.20;;
10471;SDS011;5283;48.876;8.962;2023-11-21T01:12:13;3.77;;;1.37;;
10471;SDS011;5283;48.876;8.962;2023-11-21T01:14:42;3.27;;;1.60;;
10471;SDS011;5283;48.876;8.962;2023-11-21T01:17:09;1.77;;;1.40;;
10471;SDS011;5283;48.876;8.962;2023-11-21T01:19:36;4.33;;;1.20;;
10471;SDS011;5283;48.876;8.962;2023-11-21T01:22:03;2.60;;;1.40;;
10471;SDS011;5283;48.876;8.962;2023-11-21T01:24:30;3.03;;;1.13;;
10471;SDS011;5283;48.876;8.962;2023-11-21T01:26:57;1.97;;;1.10;;
10471;SDS011;5283;48.876;8.962;2023-11-21T01:29:23;5.57;;;1.73;;
10471;SDS011;5283;48.876;8.962;2023-11-21T01:31:50;6.87;;;1.47;;
10471;SDS011;5283;48.876;8.962;2023-11-21T01:34:18;2.00;;;1.30;;
10471;SDS011;5283;48.876;8.962;2023-11-21T01:36:45;4.70;;;1.30;;
10471;SDS011;5283;48.876;8.962;2023-11-21T01:39:12;2.57;;;1.30;;
10471;SDS011;5283;48.876;8.962;2023-11-21T01:41:41;4.97;;;1.33;;
10471;SDS011;5283;48.876;8.962;2023-11-21T01:44:10;5.73;;;1.83;;
10471;SDS011;5283;48.876;8.962;2023-11-21T01:46:37;3.10;;;1.60;;
10471;SDS011;5283;48.876;8.962;2023-11-21T01:49:05;2.20;;;1.30;;
10471;SDS011;5283;48.876;8.962;2023-11-21T01:51:32;4.00;;;1.67;;
10471;SDS011;5283;48.876;8.962;2023-11-21T01:53:59;4.07;;;1.63;;
10471;SDS011;5283;48.876;8.962;2023-11-21T01:56:25;3.63;;;1.60;;
10471;SDS011;5283;48.876;8.962;2023-11-21T01:58:52;1.40;;;1.10;;
10471;SDS011;5283;48.876;8.962;2023-11-21T02:01:20;3.07;;;1.50;;
10471;SDS011;5283;48.876;8.962;2023-11-21T02:03:46;4.40;;;1.60;;
10471;SDS011;5283;48.876;8.962;2023-11-21T02:06:13;2.23;;;1.50;;
10471;SDS011;5283;48.876;8.962;2023-11-21T02:08:40;3.60;;;1.40;;
10471;SDS011;5283;48.876;8.962;2023-11-21T02:11:10;2.63;;;1.83;;
10471;SDS011;5283;48.876;8.962;2023-11-21T02:13:39;3.53;;;1.10;;
10471;SDS011;5283;48.876;8.962;2023-11-21T02:16:09;3.63;;;1.80;;
10471;SDS011;5283;48.876;8.962;2023-11-21T02:18:39;2.57;;;1.23;;
10471;SDS011;5283;48.876;8.962;2023-11-21T02:21:06;3.37;;;1.60;;
10471;SDS011;5283;48.876;8.962;2023-11-21T02:23:32;3.13;;;1.37;;
10471;SDS011;5283;48.876;8.962;2023-11-21T02:25:59;2.17;;;1.50;;
10471;SDS011;5283;48.876;8.962;2023-11-21T02:28:30;6.40;;;1.60;;
10471;SDS011;5283;48.876;8.962;2023-11-21T02:30:57;2.17;;;1.27;;
10471;SDS011;5283;48.876;8.962;2023-11-21T02:33:25;4.17;;;1.50;;
10471;SDS011;5283;48.876;8.962;2023-11-21T02:35:52;1.97;;;1.60;;
10471;SDS011;5283;48.876;8.962;2023-11-21T02:38:21;4.97;;;1.60;;
10471;SDS011;5283;48.876;8.962;2023-11-21T02:40:48;1.30;;;1.20;;
10471;SDS011;5283;48.876;8.962;2023-11-21T02:43:15;3.50;;;1.57;;
10471;SDS011;5283;48.876;8.962;2023-11-21T02:45:42;5.40;;;1.90;;
10471;SDS011;5283;48.876;8.962;2023-11-21T02:48:08;3.27;;;1.73;;
10471;SDS011;5283;48.876;8.962;2023-11-21T02:50:35;2.13;;;1.50;;
10471;SDS011;5283;48.876;8.962;2023-11-21T02:53:02;5.57;;;1.50;;
10471;SDS011;5283;48.876;8.962;2023-11-21T02:55:30;1.93;;;1.50;;
10471;SDS011;5283;48.876;8.962;2023-11-21T02:58:01;2.80;;;1.40;;
10471;SDS011;5283;48.876;8.962;2023-11-21T03:00:29;3.40;;;1.60;;
10471;SDS011;5283;48.876;8.962;2023-11-21T03:02:56;2.10;;;1.50;;
10471;SDS011;5283;48.876;8.962;2023-11-21T03:05:23;2.40;;;1.60;;
10471;SDS011;5283;48.876;8.962;2023-11-21T03:07:50;3.57;;;1.70;;
10471;SDS011;5283;48.876;8.962;2023-11-21T03:10:17;4.57;;;1.63;;
10471;SDS011;5283;48.876;8.962;2023-11-21T03:12:43;1.90;;;1.70;;
10471;SDS011;5283;48.876;8.962;2023-11-21T03:15:10;3.23;;;1.53;;
10471;SDS011;5283;48.876;8.962;2023-11-21T03:17:37;2.03;;;1.27;;
10471;SDS011;5283;48.876;8.962;2023-11-21T03:20:04;4.37;;;1.63;;
10471;SDS011;5283;48.876;8.962;2023-11-21T03:22:32;1.87;;;1.30;;
10471;SDS011;5283;48.876;8.962;2023-11-21T03:24:59;2.60;;;1.50;;
10471;SDS011;5283;48.876;8.962;2023-11-21T03:27:25;3.80;;;1.80;;
10471;SDS011;5283;48.876;8.962;2023-11-21T03:29:52;3.40;;;1.60;;
10471;SDS011;5283;48.876;8.962;2023-11-21T03:32:20;2.00;;;1.80;;
10471;SDS011;5283;48.876;8.962;2023-11-21T03:34:54;4.30;;;1.90;;
10471;SDS011;5283;48.876;8.962;2023-11-21T03:37:22;2.33;;;1.30;;
10471;SDS011;5283;48.876;8.962;2023-11-21T03:39:49;3.93;;;1.60;;
10471;SDS011;5283;48.876;8.962;2023-11-21T03:42:16;3.20;;;1.63;;
10471;SDS011;5283;48.876;8.962;2023-11-21T03:44:43;2.33;;;1.87;;
10471;SDS011;5283;48.876;8.962;2023-11-21T03:47:10;3.57;;;1.80;;
10471;SDS011;5283;48.876;8.962;2023-11-21T03:49:37;3.10;;;1.73;;
10471;SDS011;5283;48.876;8.962;2023-11-21T03:52:04;3.40;;;1.80;;
10471;SDS011;5283;48.876;8.962;2023-11-21T03:54:31;2.93;;;1.80;;
10471;SDS011;5283;48.876;8.962;2023-11-21T03:56:58;2.60;;;1.47;;
10471;SDS011;5283;48.876;8.962;2023-11-21T03:59:24;3.07;;;1.47;;
10471;SDS011;5283;48.876;8.962;2023-11-21T04:01:51;3.43;;;1.47;;
10471;SDS011;5283;48.876;8.962;2023-11-21T04:04:18;3.53;;;1.53;;
10471;SDS011;5283;48.876;8.962;2023-11-21T04:06:46;2.13;;;1.33;;
10471;SDS011;5283;48.876;8.962;2023-11-21T04:09:12;2.17;;;1.80;;
10471;SDS011;5283;48.876;8.962;2023-11-21T04:11:39;1.50;;;1.40;;
10471;SDS011;5283;48.876;8.962;2023-11-21T04:14:06;1.90;;;1.27;;
10471;SDS011;5283;48.876;8.962;2023-11-21T04:16:32;3.43;;;1.53;;
10471;SDS011;5283;48.876;8.962;2023-11-21T04:18:59;1.60;;;1.50;;
10471;SDS011;5283;48.876;8.962;2023-11-21T04:21:27;2.73;;;1.60;;
10471;SDS011;5283;48.876;8.962;2023-11-21T04:23:54;3.83;;;1.73;;
10471;SDS011;5283;48.876;8.962;2023-11-21T04:26:20;2.83;;;1.43;;
10471;SDS011;5283;48.876;8.962;2023-11-21T04:28:47;1.90;;;1.57;;
10471;SDS011;5283;48.876;8.962;2023-11-21T04:31:14;3.37;;;2.00;;
10471;SDS011;5283;48.876;8.962;2023-11-21T04:33:41;1.83;;;1.40;;
10471;SDS011;5283;48.876;8.962;2023-11-21T04:36:08;1.93;;;1.50;;
10471;SDS011;5283;48.876;8.962;2023-11-21T04:38:35;2.17;;;1.60;;
10471;SDS011;5283;48.876;8.962;2023-11-21T04:41:01;1.77;;;1.60;;
10471;SDS011;5283;48.876;8.962;2023-11-21T04:43:28;1.50;;;1.40;;
10471;SDS011;5283;48.876;8.962;2023-11-21T04:45:55;1.90;;;1.80;;
10471;SDS011;5283;48.876;8.962;2023-11-21T04:48:22;3.20;;;2.10;;
10471;SDS011;5283;48.876;8.962;2023-11-21T04:50:49;4.27;;;2.10;;
10471;SDS011;5283;48.876;8.962;2023-11-21T04:53:16;2.23;;;2.03;;
10471;SDS011;5283;48.876;8.962;2023-11-21T04:55:43;2.40;;;1.93;;
10471;SDS011;5283;48.876;8.962;2023-11-21T04:58:10;4.50;;;2.30;;
10471;SDS011;5283;48.876;8.962;2023-11-21T05:00:38;2.30;;;1.97;;
10471;SDS011;5283;48.876;8.962;2023-11-21T05:03:05;4.60;;;2.60;;
10471;SDS011;5283;48.876;8.962;2023-11-21T05:05:33;4.00;;;2.40;;
10471;SDS011;5283;48.876;8.962;2023-11-21T05:08:00;3.60;;;2.23;;
10471;SDS011;5283;48.876;8.962;2023-11-21T05:10:28;2.33;;;2.07;;
10471;SDS011;5283;48.876;8.962;2023-11-21T05:12:55;3.47;;;2.30;;
10471;SDS011;5283;48.876;8.962;2023-11-21T05:15:22;2.20;;;2.00;;
10471;SDS011;5283;48.876;8.962;2023-11-21T05:17:49;5.50;;;1.97;;
10471;SDS011;5283;48.876;8.962;2023-11-21T05:20:18;1.90;;;1.80;;
10471;SDS011;5283;48.876;8.962;2023-11-21T05:22:47;4.03;;;2.30;;
10471;SDS011;5283;48.876;8.962;2023-11-21T05:25:17;2.53;;;2.17;;
10471;SDS011;5283;48.876;8.962;2023-11-21T05:27:47;3.17;;;1.90;;
10471;SDS011;5283;48.876;8.962;2023-11-21T05:30:14;2.07;;;1.90;;
10471;SDS011;5283;48.876;8.962;2023-11-21T05:32:41;2.27;;;2.03;;
10471;SDS011;5283;48.876;8.962;2023-11-21T05:35:12;3.40;;;1.90;;
10471;SDS011;5283;48.876;8.962;2023-11-21T05:37:42;4.90;;;2.13;;
10471;SDS011;5283;48.876;8.962;2023-11-21T05:40:09;4.40;;;2.20;;
10471;SDS011;5283;48.876;8.962;2023-11-21T05:42:36;3.93;;;2.00;;
10471;SDS011;5283;48.876;8.962;2023-11-21T05:45:06;6.77;;;2.40;;
10471;SDS011;5283;48.876;8.962;2023-11-21T05:47:41;2.87;;;2.47;;
10471;SDS011;5283;48.876;8.962;2023-11-21T05:50:10;3.63;;;2.23;;
10471;SDS011;5283;48.876;8.962;2023-11-21T05:52:38;4.40;;;1.97;;
10471;SDS011;5283;48.876;8.962;2023-11-21T05:55:06;2.60;;;1.40;;
10471;SDS011;5283;48.876;8.962;2023-11-21T05:57:37;2.40;;;1.90;;
10471;SDS011;5283;48.876;8.962;2023-11-21T06:00:05;1.63;;;1.53;;
10471;SDS011;5283;48.876;8.962;2023-11-21T06:02:47;3.27;;;2.20;;
10471;SDS011;5283;48.876;8.962;2023-11-21T06:05:17;2.30;;;2.10;;
10471;SDS011;5283;48.876;8.962;2023-11-21T06:07:44;3.10;;;2.33;;
10471;SDS011;5283;48.876;8.962;2023-11-21T06:10:11;2.47;;;2.23;;
10471;SDS011;5283;48.876;8.962;2023-11-21T06:12:41;3.50;;;2.80;;
10471;SDS011;5283;48.876;8.962;2023-11-21T06:15:09;3.07;;;2.57;;
10471;SDS011;5283;48.876;8.962;2023-11-21T06:17:40;2.43;;;2.20;;
10471;SDS011;5283;48.876;8.962;2023-11-21T06:20:09;4.27;;;2.73;;
10471;SDS011;5283;48.876;8.962;2023-11-21T06:22:40;2.50;;;2.30;;
10471;SDS011;5283;48.876;8.962;2023-11-21T06:25:08;3.50;;;2.23;;
10471;SDS011;5283;48.876;8.962;2023-11-21T06:27:39;4.10;;;2.20;;
10471;SDS011;5283;48.876;8.962;2023-11-21T06:30:08;2.97;;;2.30;;
10471;SDS011;5283;48.876;8.962;2023-11-21T06:32:36;8.37;;;2.40;;
10471;SDS011;5283;48.876;8.962;2023-11-21T06:35:04;1.60;;;1.50;;
10471;SDS011;5283;48.876;8.962;2023-11-21T06:37:32;41.17;;;2.93;;
10471;SDS011;5283;48.876;8.962;2023-11-21T06:39:59;15.27;;;2.10;;
10471;SDS011;5283;48.876;8.962;2023-11-21T06:42:26;2.73;;;1.50;;
10471;SDS011;5283;48.876;8.962;2023-11-21T06:44:55;2.93;;;1.90;;
10471;SDS011;5283;48.876;8.962;2023-11-21T06:47:23;2.37;;;1.80;;
10471;SDS011;5283;48.876;8.962;2023-11-21T06:49:52;3.47;;;1.77;;
10471;SDS011;5283;48.876;8.962;2023-11-21T06:52:19;2.20;;;1.77;;
10471;SDS011;5283;48.876;8.962;2023-11-21T06:54:47;5.30;;;2.33;;
10471;SDS011;5283;48.876;8.962;2023-11-21T06:57:15;3.80;;;2.70;;
10471;SDS011;5283;48.876;8.962;2023-11-21T06:59:42;7.97;;;3.20;;
10471;SDS011;5283;48.876;8.962;2023-11-21T07:02:09;6.43;;;4.63;;
10471;SDS011;5283;48.876;8.962;2023-11-21T07:04:36;5.67;;;3.57;;
10471;SDS011;5283;48.876;8.962;2023-11-21T07:07:03;4.90;;;3.60;;
10471;SDS011;5283;48.876;8.962;2023-11-21T07:09:30;7.43;;;4.20;;
10471;SDS011;5283;48.876;8.962;2023-11-21T07:11:57;6.17;;;3.83;;
10471;SDS011;5283;48.876;8.962;2023-11-21T07:14:24;4.30;;;3.30;;
10471;SDS011;5283;48.876;8.962;2023-11-21T07:16:50;5.73;;;3.13;;
10471;SDS011;5283;48.876;8.962;2023-11-21T07:19:18;4.33;;;3.03;;
10471;SDS011;5283;48.876;8.962;2023-11-21T07:21:46;4.40;;;2.90;;
10471;SDS011;5283;48.876;8.962;2023-11-21T07:24:12;2.53;;;2.23;;
10471;SDS011;5283;48.876;8.962;2023-11-21T07:26:40;2.20;;;2.00;;
10471;SDS011;5283;48.876;8.962;2023-11-21T07:29:07;2.90;;;2.10;;
10471;SDS011;5283;48.876;8.962;2023-11-21T07:31:33;2.97;;;2.00;;
10471;SDS011;5283;48.876;8.962;2023-11-21T07:34:00;2.37;;;2.17;;
10471;SDS011;5283;48.876;8.962;2023-11-21T07:36:28;3.40;;;2.07;;
10471;SDS011;5283;48.876;8.962;2023-11-21T07:38:56;3.00;;;1.80;;
10471;SDS011;5283;48.876;8.962;2023-11-21T07:41:22;3.27;;;2.97;;
10471;SDS011;5283;48.876;8.962;2023-11-21T07:43:50;5.87;;;3.60;;
10471;SDS011;5283;48.876;8.962;2023-11-21T07:46:17;4.63;;;3.43;;
10471;SDS011;5283;48.876;8.962;2023-11-21T07:48:44;5.77;;;3.97;;
10471;SDS011;5283;48.876;8.962;2023-11-21T07:51:13;4.70;;;4.20;;
10471;SDS011;5283;48.876;8.962;2023-11-21T07:53:40;5.10;;;3.90;;
10471;SDS011;5283;48.876;8.962;2023-11-21T07:56:07;3.50;;;3.20;;
10471;SDS011;5283;48.876;8.962;2023-11-21T07:58:35;3.70;;;3.40;;
10471;SDS011;5283;48.876;8.962;2023-11-21T08:01:02;4.23;;;2.80;;
10471;SDS011;5283;48.876;8.962;2023-11-21T08:03:30;5.73;;;3.10;;
10471;SDS011;5283;48.876;8.962;2023-11-21T08:05:57;3.83;;;2.90;;
10471;SDS011;5283;48.876;8.962;2023-11-21T08:08:24;3.37;;;3.07;;
10471;SDS011;5283;48.876;8.962;2023-11-21T08:10:51;4.53;;;2.90;;
10471;SDS011;5283;48.876;8.962;2023-11-21T08:13:28;3.63;;;3.03;;
10471;SDS011;5283;48.876;8.962;2023-11-21T08:15:57;3.63;;;2.53;;
10471;SDS011;5283;48.876;8.962;2023-11-21T08:18:28;3.30;;;2.70;;
10471;SDS011;5283;48.876;8.962;2023-11-21T08:20:56;3.20;;;2.90;;
10471;SDS011;5283;48.876;8.962;2023-11-21T08:23:23;3.00;;;2.70;;
10471;SDS011;5283;48.876;8.962;2023-11-21T08:25:53;2.73;;;2.30;;
10471;SDS011;5283;48.876;8.962;2023-11-21T08:28:20;2.87;;;2.60;;
10471;SDS011;5283;48.876;8.962;2023-11-21T08:30:52;3.77;;;2.80;;
10471;SDS011;5283;48.876;8.962;2023-11-21T08:33:20;4.57;;;2.63;;
10471;SDS011;5283;48.876;8.962;2023-11-21T08:35:47;4.30;;;3.40;;
10471;SDS011;5283;48.876;8.962;2023-11-21T08:38:14;4.07;;;3.23;;
10471;SDS011;5283;48.876;8.962;2023-11-21T08:40:41;4.47;;;3.80;;
10471;SDS011;5283;48.876;8.962;2023-11-21T08:43:08;4.73;;;3.80;;
10471;SDS011;5283;48.876;8.962;2023-11-21T08:45:35;3.97;;;3.03;;
10471;SDS011;5283;48.876;8.962;2023-11-21T08:48:02;3.87;;;3.57;;
10471;SDS011;5283;48.876;8.962;2023-11-21T08:50:29;4.20;;;3.80;;
10471;SDS011;5283;48.876;8.962;2023-11-21T08:52:56;3.93;;;3.57;;
10471;SDS011;5283;48.876;8.962;2023-11-21T08:55:23;5.77;;;4.77;;
10471;SDS011;5283;48.876;8.962;2023-11-21T08:57:50;4.70;;;3.73;;
10471;SDS011;5283;48.876;8.962;2023-11-21T09:00:17;3.40;;;2.80;;
10471;SDS011;5283;48.876;8.962;2023-11-21T09:02:46;2.53;;;2.30;;
10471;SDS011;5283;48.876;8.962;2023-11-21T09:05:13;2.40;;;2.30;;
10471;SDS011;5283;48.876;8.962;2023-11-21T09:07:42;2.40;;;2.20;;
10471;SDS011;5283;48.876;8.962;2023-11-21T09:10:09;3.63;;;2.53;;
10471;SDS011;5283;48.876;8.962;2023-11-21T09:12:36;3.00;;;2.70;;
10471;SDS011;5283;48.876;8.962;2023-11-21T09:15:04;3.07;;;2.60;;
10471;SDS011;5283;48.876;8.962;2023-11-21T09:17:32;3.03;;;2.30;;
10471;SDS011;5283;48.876;8.962;2023-11-21T09:20:00;2.20;;;2.00;;
10471;SDS011;5283;48.876;8.962;2023-11-21T09:22:29;3.40;;;3.03;;
10471;SDS011;5283;48.876;8.962;2023-11-21T09:24:57;2.67;;;2.47;;
10471;SDS011;5283;48.876;8.962;2023-11-21T09:27:24;1.90;;;1.13;;
10471;SDS011;5283;48.876;8.962;2023-11-21T09:29:52;1.27;;;1.27;;
10471;SDS011;5283;48.876;8.962;2023-11-21T09:32:22;2.00;;;1.90;;
10471;SDS011;5283;48.876;8.962;2023-11-21T09:34:51;2.70;;;2.50;;
10471;SDS011;5283;48.876;8.962;2023-11-21T09:37:20;6.77;;;6.17;;
10471;SDS011;5283;48.876;8.962;2023-11-21T09:39:46;4.93;;;4.23;;
10471;SDS011;5283;48.876;8.962;2023-11-21T09:42:23;3.33;;;3.13;;
10471;SDS011;5283;48.876;8.962;2023-11-21T09:44:54;2.80;;;2.60;;
10471;SDS011;5283;48.876;8.962;2023-11-21T09:47:38;2.70;;;2.13;;
10471;SDS011;5283;48.876;8.962;2023-11-21T09:50:05;3.93;;;3.63;;
10471;SDS011;5283;48.876;8.962;2023-11-21T09:52:43;5.27;;;4.77;;
10471;SDS011;5283;48.876;8.962;2023-11-21T09:55:34;2.80;;;2.60;;
10471;SDS011;5283;48.876;8.962;2023-11-21T09:58:04;1.77;;;1.67;;
10471;SDS011;5283;48.876;8.962;2023-11-21T10:00:34;1.83;;;1.73;;
10471;SDS011;5283;48.876;8.962;2023-11-21T10:03:01;2.90;;;1.93;;
10471;SDS011;5283;48.876;8.962;2023-11-21T10:05:29;2.90;;;2.70;;
10471;SDS011;5283;48.876;8.962;2023-11-21T10:07:56;2.10;;;1.90;;
10471;SDS011;5283;48.876;8.962;2023-11-21T10:10:23;2.70;;;2.50;;
10471;SDS011;5283;48.876;8.962;2023-11-21T10:12:53;2.00;;;1.90;;
10471;SDS011;5283;48.876;8.962;2023-11-21T10:15:23;1.53;;;1.43;;
10471;SDS011;5283;48.876;8.962;2023-11-21T10:17:54;1.77;;;1.67;;
10471;SDS011;5283;48.876;8.962;2023-11-21T10:20:23;1.60;;;1.50;;
10471;SDS011;5283;48.876;8.962;2023-11-21T10:22:50;1.80;;;1.70;;
10471;SDS011;5283;48.876;8.962;2023-11-21T10:25:17;2.30;;;2.10;;
10471;SDS011;5283;48.876;8.962;2023-11-21T10:27:47;1.80;;;1.70;;
10471;SDS011;5283;48.876;8.962;2023-11-21T10:30:18;2.40;;;1.60;;
10471;SDS011;5283;48.876;8.962;2023-11-21T10:32:44;2.00;;;1.60;;
10471;SDS011;5283;48.876;8.962;2023-11-21T10:35:12;2.07;;;1.33;;
10471;SDS011;5283;48.876;8.962;2023-11-21T10:37:39;1.67;;;1.20;;
10471;SDS011;5283;48.876;8.962;2023-11-21T10:40:07;2.20;;;1.80;;
10471;SDS011;5283;48.876;8.962;2023-11-21T10:42:39;2.10;;;1.27;;
10471;SDS011;5283;48.876;8.962;2023-11-21T10:45:06;1.43;;;1.33;;
10471;SDS011;5283;48.876;8.962;2023-11-21T10:47:41;1.67;;;1.57;;
10471;SDS011;5283;48.876;8.962;2023-11-21T10:50:09;0.70;;;0.70;;
10471;SDS011;5283;48.876;8.962;2023-11-21T10:52:39;0.77;;;0.77;;
10471;SDS011;5283;48.876;8.962;2023-11-21T10:55:15;1.10;;;1.10;;
10471;SDS011;5283;48.876;8.962;2023-11-21T10:57:48;1.70;;;1.60;;
10471;SDS011;5283;48.876;8.962;2023-11-21T11:00:17;1.63;;;1.53;;
10471;SDS011;5283;48.876;8.962;2023-11-21T11:02:53;1.10;;;1.10;;
10471;SDS011;5283;48.876;8.962;2023-11-21T11:05:27;1.13;;;1.13;;
10471;SDS011;5283;48.876;8.962;2023-11-21T11:07:58;1.00;;;1.00;;
10471;SDS011;5283;48.876;8.962;2023-11-21T11:10:28;3.30;;;2.17;;
10471;SDS011;5283;48.876;8.962;2023-11-21T11:12:56;2.50;;;2.40;;
10471;SDS011;5283;48.876;8.962;2023-11-21T11:15:27;3.00;;;2.80;;
10471;SDS011;5283;48.876;8.962;2023-11-21T11:17:54;3.70;;;3.40;;
10471;SDS011;5283;48.876;8.962;2023-11-21T11:20:33;4.40;;;4.00;;
10471;SDS011;5283;48.876;8.962;2023-11-21T11:28:47;5.13;;;4.70;;
10471;SDS011;5283;48.876;8.962;2023-11-21T11:31:37;4.50;;;4.20;;
10471;SDS011;5283;48.876;8.962;2023-11-21T11:34:32;3.27;;;3.07;;
10471;SDS011;5283;48.876;8.962;2023-11-21T11:37:04;3.67;;;3.47;;
10471;SDS011;5283;48.876;8.962;2023-11-21T11:39:37;3.90;;;3.60;;
10471;SDS011;5283;48.876;8.962;2023-11-21T11:42:08;3.53;;;3.33;;
10471;SDS011;5283;48.876;8.962;2023-11-21T11:47:15;3.70;;;3.50;;
10471;SDS011;5283;48.876;8.962;2023-11-21T11:52:46;4.10;;;3.80;;
10471;SDS011;5283;48.876;8.962;2023-11-21T11:55:15;4.30;;;4.00;;
10471;SDS011;5283;48.876;8.962;2023-11-21T11:57:45;3.47;;;3.27;;
10471;SDS011;5283;48.876;8.962;2023-11-21T12:03:07;4.37;;;4.07;;
10471;SDS011;5283;48.876;8.962;2023-11-21T12:05:35;3.83;;;3.60;;
10471;SDS011;5283;48.876;8.962;2023-11-21T12:08:05;4.10;;;3.80;;
10471;SDS011;5283;48.876;8.962;2023-11-21T12:10:33;4.00;;;3.70;;
10471;SDS011;5283;48.876;8.962;2023-11-21T12:13:02;4.07;;;3.77;;
10471;SDS011;5283;48.876;8.962;2023-11-21T12:15:38;4.17;;;3.87;;
10471;SDS011;5283;48.876;8.962;2023-11-21T12:18:07;4.27;;;3.97;;
10471;SDS011;5283;48.876;8.962;2023-11-21T12:20:34;4.80;;;4.13;;
10471;SDS011;5283;48.876;8.962;2023-11-21T12:23:05;4.50;;;4.10;;
10471;SDS011;5283;48.876;8.962;2023-11-21T12:25:32;1.37;;;1.37;;
10471;SDS011;5283;48.876;8.962;2023-11-21T12:27:59;1.33;;;1.33;;
10471;SDS011;5283;48.876;8.962;2023-11-21T12:30:27;1.43;;;1.37;;
10471;SDS011;5283;48.876;8.962;2023-11-21T12:32:59;1.97;;;1.87;;
10471;SDS011;5283;48.876;8.962;2023-11-21T12:35:34;2.10;;;2.00;;
10471;SDS011;5283;48.876;8.962;2023-11-21T12:38:02;2.10;;;2.00;;
10471;SDS011;5283;48.876;8.962;2023-11-21T12:40:30;2.00;;;1.90;;
10471;SDS011;5283;48.876;8.962;2023-11-21T12:42:58;1.70;;;1.70;;
10471;SDS011;5283;48.876;8.962;2023-11-21T12:45:27;1.20;;;1.20;;
10471;SDS011;5283;48.876;8.962;2023-11-21T12:47:59;1.10;;;1.10;;
10471;SDS011;5283;48.876;8.962;2023-11-21T12:50:29;0.60;;;0.60;;
10471;SDS011;5283;48.876;8.962;2023-11-21T12:53:04;0.70;;;0.70;;
10471;SDS011;5283;48.876;8.962;2023-11-21T12:55:36;1.20;;;1.10;;
10471;SDS011;5283;48.876;8.962;2023-11-21T12:58:05;1.13;;;1.13;;
10471;SDS011;5283;48.876;8.962;2023-11-21T13:00:40;1.20;;;1.20;;
10471;SDS011;5283;48.876;8.962;2023-11-21T13:03:12;1.30;;;1.30;;
10471;SDS011;5283;48.876;8.962;2023-11-21T13:05:44;1.53;;;1.47;;
10471;SDS011;5283;48.876;8.962;2023-11-21T13:08:16;1.83;;;1.73;;
10471;SDS011;5283;48.876;8.962;2023-11-21T13:10:49;1.30;;;1.30;;
10471;SDS011;5283;48.876;8.962;2023-11-21T13:13:17;1.43;;;1.33;;
10471;SDS011;5283;48.876;8.962;2023-11-21T13:15:53;1.10;;;1.10;;
10471;SDS011;5283;48.876;8.962;2023-11-21T13:18:24;0.93;;;0.93;;
10471;SDS011;5283;48.876;8.962;2023-11-21T13:20:53;0.93;;;0.93;;
10471;SDS011;5283;48.876;8.962;2023-11-21T13:23:21;0.60;;;0.60;;
10471;SDS011;5283;48.876;8.962;2023-11-21T13:25:49;0.50;;;0.50;;
10471;SDS011;5283;48.876;8.962;2023-11-21T13:28:19;0.43;;;0.43;;
10471;SDS011;5283;48.876;8.962;2023-11-21T13:30:48;0.40;;;0.33;;
10471;SDS011;5283;48.876;8.962;2023-11-21T13:33:14;0.40;;;0.40;;
10471;SDS011;5283;48.876;8.962;2023-11-21T13:35:47;0.30;;;0.30;;
10471;SDS011;5283;48.876;8.962;2023-11-21T13:38:16;0.27;;;0.27;;
10471;SDS011;5283;48.876;8.962;2023-11-21T13:40:46;0.50;;;0.50;;
10471;SDS011;5283;48.876;8.962;2023-11-21T13:43:16;0.10;;;0.10;;
10471;SDS011;5283;48.876;8.962;2023-11-21T13:45:44;0.10;;;0.10;;
10471;SDS011;5283;48.876;8.962;2023-11-21T13:48:13;0.10;;;0.10;;
10471;SDS011;5283;48.876;8.962;2023-11-21T13:50:51;0.20;;;0.20;;
10471;SDS011;5283;48.876;8.962;2023-11-21T13:53:50;0.10;;;0.10;;
10471;SDS011;5283;48.876;8.962;2023-11-21T13:56:18;0.10;;;0.10;;
10471;SDS011;5283;48.876;8.962;2023-11-21T13:58:50;0.10;;;0.10;;
10471;SDS011;5283;48.876;8.962;2023-11-21T14:01:21;0.40;;;0.20;;
10471;SDS011;5283;48.876;8.962;2023-11-21T14:04:13;0.30;;;0.30;;
10471;SDS011;5283;48.876;8.962;2023-11-21T14:06:44;0.50;;;0.50;;
10471;SDS011;5283;48.876;8.962;2023-11-21T14:09:19;0.47;;;0.47;;
10471;SDS011;5283;48.876;8.962;2023-11-21T14:12:02;1.20;;;1.10;;
10471;SDS011;5283;48.876;8.962;2023-11-21T14:14:32;1.47;;;1.37;;
10471;SDS011;5283;48.876;8.962;2023-11-21T14:17:00;1.37;;;1.30;;
10471;SDS011;5283;48.876;8.962;2023-11-21T14:19:30;1.13;;;1.00;;
10471;SDS011;5283;48.876;8.962;2023-11-21T14:21:59;1.27;;;1.27;;
10471;SDS011;5283;48.876;8.962;2023-11-21T14:24:26;0.93;;;0.93;;
10471;SDS011;5283;48.876;8.962;2023-11-21T14:26:55;0.87;;;0.87;;
10471;SDS011;5283;48.876;8.962;2023-11-21T14:29:22;1.13;;;0.90;;
10471;SDS011;5283;48.876;8.962;2023-11-21T14:31:49;1.00;;;1.00;;
10471;SDS011;5283;48.876;8.962;2023-11-21T14:34:17;1.07;;;1.07;;
10471;SDS011;5283;48.876;8.962;2023-11-21T14:36:44;0.97;;;0.97;;
10471;SDS011;5283;48.876;8.962;2023-11-21T14:39:11;0.90;;;0.90;;
10471;SDS011;5283;48.876;8.962;2023-11-21T14:41:53;1.00;;;0.90;;
10471;SDS011;5283;48.876;8.962;2023-11-21T14:44:25;1.23;;;1.23;;
10471;SDS011;5283;48.876;8.962;2023-11-21T14:46:58;1.00;;;1.00;;
10471;SDS011;5283;48.876;8.962;2023-11-21T14:49:26;1.47;;;1.20;;
10471;SDS011;5283;48.876;8.962;2023-11-21T14:51:59;1.27;;;1.27;;
10471;SDS011;5283;48.876;8.962;2023-11-21T14:54:29;1.83;;;1.33;;
10471;SDS011;5283;48.876;8.962;2023-11-21T14:57:07;1.40;;;1.40;;
10471;SDS011;5283;48.876;8.962;2023-11-21T14:59:42;1.50;;;1.40;;
10471;SDS011;5283;48.876;8.962;2023-11-21T15:02:13;1.10;;;1.10;;
10471;SDS011;5283;48.876;8.962;2023-11-21T15:04:47;1.57;;;1.53;;
10471;SDS011;5283;48.876;8.962;2023-11-21T15:07:15;1.20;;;1.20;;
10471;SDS011;5283;48.876;8.962;2023-11-21T15:09:41;1.70;;;1.60;;
10471;SDS011;5283;48.876;8.962;2023-11-21T15:12:09;1.70;;;1.60;;
10471;SDS011;5283;48.876;8.962;2023-11-21T15:14:43;2.30;;;2.10;;
10471;SDS011;5283;48.876;8.962;2023-11-21T15:17:12;2.20;;;2.00;;
10471;SDS011;5283;48.876;8.962;2023-11-21T15:19:45;2.47;;;2.33;;
10471;SDS011;5283;48.876;8.962;2023-11-21T15:22:12;2.80;;;2.60;;
10471;SDS011;5283;48.876;8.962;2023-11-21T15:24:45;2.70;;;2.50;;